sensor_id;sensor_type;location;lat;lon;timestamp;temperature;humidity
35381;DHT22;21486;51.916;8.378;2023-04-01T00:00:19;9.40;99.90
35381;DHT22;21486;51.916;8.378;2023-04-01T00:02:45;9.30;99.90
35381;DHT22;21486;51.916;8.378;2023-04-01T00:05:11;9.40;99.90
35381;DHT22;21486;51.916;8.378;2023-04-01T00:07:37;9.30;99.90
35381;DHT22;21486;51.916;8.378;2023-04-01T00:10:07;9.30;99.90
35381;DHT22;21486;51.916;8.378;2023-04-01T00:12:33;9.30;99.90
35381;DHT22;21486;51.916;8.378;2023-04-01T00:14:59;9.30;99.90
35381;DHT22;21486;51.916;8.378;2023-04-01T00:17:25;9.30;99.90
35381;DHT22;21486;51.916;8.378;2023-04-01T00:19:51;9.30;99.90
35381;DHT22;21486;51.916;8.378;2023-04-01T00:22:16;9.30;99.90
35381;DHT22;21486;51.916;8.378;2023-04-01T00:24:42;9.40;99.90
35381;DHT22;21486;51.916;8.378;2023-04-01T00:27:08;9.30;99.90
35381;DHT22;21486;51.916;8.378;2023-04-01T00:29:34;9.30;99.90
35381;DHT22;21486;51.916;8.378;2023-04-01T00:33:02;9.30;99.90
35381;DHT22;21486;51.916;8.378;2023-04-01T00:35:28;9.30;99.90
35381;DHT22;21486;51.916;8.378;2023-04-01T00:37:53;9.40;99.90
35381;DHT22;21486;51.916;8.378;2023-04-01T00:40:33;9.40;99.90
35381;DHT22;21486;51.916;8.378;2023-04-01T00:43:00;9.40;99.90
35381;DHT22;21486;51.916;8.378;2023-04-01T00:45:33;9.40;99.90
35381;DHT22;21486;51.916;8.378;2023-04-01T00:48:03;9.40;99.90
35381;DHT22;21486;51.916;8.378;2023-04-01T00:50:30;9.40;99.90
35381;DHT22;21486;51.916;8.378;2023-04-01T00:52:58;9.40;99.90
35381;DHT22;21486;51.916;8.378;2023-04-01T00:55:25;9.40;99.90
35381;DHT22;21486;51.916;8.378;2023-04-01T00:57:53;9.40;99.90
35381;DHT22;21486;51.916;8.378;2023-04-01T01:00:21;9.40;99.90
35381;DHT22;21486;51.916;8.378;2023-04-01T01:02:50;9.50;99.90
35381;DHT22;21486;51.916;8.378;2023-04-01T01:05:19;9.50;99.90
35381;DHT22;21486;51.916;8.378;2023-04-01T01:10:33;9.40;99.90
35381;DHT22;21486;51.916;8.378;2023-04-01T01:13:17;9.40;99.90
35381;DHT22;21486;51.916;8.378;2023-04-01T01:15:47;9.50;99.90
35381;DHT22;21486;51.916;8.378;2023-04-01T01:18:32;9.50;99.90
35381;DHT22;21486;51.916;8.378;2023-04-01T01:21:10;9.40;99.90
35381;DHT22;21486;51.916;8.378;2023-04-01T01:26:44;9.40;99.90
35381;DHT22;21486;51.916;8.378;2023-04-01T01:29:45;9.40;99.90
35381;DHT22;21486;51.916;8.378;2023-04-01T01:35:20;9.30;99.90
35381;DHT22;21486;51.916;8.378;2023-04-01T01:37:47;9.30;99.90
35381;DHT22;21486;51.916;8.378;2023-04-01T01:40:15;9.30;99.90
35381;DHT22;21486;51.916;8.378;2023-04-01T01:42:46;9.30;99.90
35381;DHT22;21486;51.916;8.378;2023-04-01T01:45:13;9.30;99.90
35381;DHT22;21486;51.916;8.378;2023-04-01T01:47:40;9.30;99.90
35381;DHT22;21486;51.916;8.378;2023-04-01T01:50:07;9.30;99.90
35381;DHT22;21486;51.916;8.378;2023-04-01T01:52:33;9.20;99.90
35381;DHT22;21486;51.916;8.378;2023-04-01T01:54:59;9.20;99.90
35381;DHT22;21486;51.916;8.378;2023-04-01T01:57:36;9.10;99.90
35381;DHT22;21486;51.916;8.378;2023-04-01T02:00:07;9.10;99.90
35381;DHT22;21486;51.916;8.378;2023-04-01T02:02:40;9.10;99.90
35381;DHT22;21486;51.916;8.378;2023-04-01T02:05:06;9.00;99.90
35381;DHT22;21486;51.916;8.378;2023-04-01T02:07:35;9.00;99.90
35381;DHT22;21486;51.916;8.378;2023-04-01T02:10:02;9.10;99.90
35381;DHT22;21486;51.916;8.378;2023-04-01T02:12:28;9.00;99.90
35381;DHT22;21486;51.916;8.378;2023-04-01T02:15:01;9.00;99.90
35381;DHT22;21486;51.916;8.378;2023-04-01T02:17:30;9.10;99.90
35381;DHT22;21486;51.916;8.378;2023-04-01T02:19:59;9.10;99.90
35381;DHT22;21486;51.916;8.378;2023-04-01T02:22:29;9.10;99.90
35381;DHT22;21486;51.916;8.378;2023-04-01T02:25:05;9.10;99.90
35381;DHT22;21486;51.916;8.378;2023-04-01T02:27:32;9.10;99.90
35381;DHT22;21486;51.916;8.378;2023-04-01T02:29:57;9.20;99.90
35381;DHT22;21486;51.916;8.378;2023-04-01T02:32:24;9.10;99.90
35381;DHT22;21486;51.916;8.378;2023-04-01T02:34:50;9.10;99.90
35381;DHT22;21486;51.916;8.378;2023-04-01T02:37:16;9.20;99.90
35381;DHT22;21486;51.916;8.378;2023-04-01T02:39:42;9.10;99.90
35381;DHT22;21486;51.916;8.378;2023-04-01T02:42:08;9.20;99.90
35381;DHT22;21486;51.916;8.378;2023-04-01T02:44:34;9.20;99.90
35381;DHT22;21486;51.916;8.378;2023-04-01T02:47:00;9.20;99.90
35381;DHT22;21486;51.916;8.378;2023-04-01T02:49:25;9.20;99.90
35381;DHT22;21486;51.916;8.378;2023-04-01T02:51:51;9.20;99.90
35381;DHT22;21486;51.916;8.378;2023-04-01T02:54:17;9.20;99.90
35381;DHT22;21486;51.916;8.378;2023-04-01T02:56:43;9.20;99.90
35381;DHT22;21486;51.916;8.378;2023-04-01T02:59:09;9.10;99.90
35381;DHT22;21486;51.916;8.378;2023-04-01T03:01:35;9.10;99.90
35381;DHT22;21486;51.916;8.378;2023-04-01T03:04:00;9.20;99.90
35381;DHT22;21486;51.916;8.378;2023-04-01T03:06:26;9.20;99.90
35381;DHT22;21486;51.916;8.378;2023-04-01T03:08:52;9.20;99.90
35381;DHT22;21486;51.916;8.378;2023-04-01T03:11:17;9.10;99.90
35381;DHT22;21486;51.916;8.378;2023-04-01T03:13:43;9.20;99.90
35381;DHT22;21486;51.916;8.378;2023-04-01T03:16:08;9.10;99.90
35381;DHT22;21486;51.916;8.378;2023-04-01T03:18:34;9.20;99.90
35381;DHT22;21486;51.916;8.378;2023-04-01T03:21:15;9.20;99.90
35381;DHT22;21486;51.916;8.378;2023-04-01T03:23:41;9.20;99.90
35381;DHT22;21486;51.916;8.378;2023-04-01T03:26:07;9.20;99.90
35381;DHT22;21486;51.916;8.378;2023-04-01T03:28:33;9.20;99.90
35381;DHT22;21486;51.916;8.378;2023-04-01T03:30:58;9.10;99.90
35381;DHT22;21486;51.916;8.378;2023-04-01T03:33:24;9.10;99.90
35381;DHT22;21486;51.916;8.378;2023-04-01T03:35:49;9.00;99.90
35381;DHT22;21486;51.916;8.378;2023-04-01T03:38:17;9.00;99.90
35381;DHT22;21486;51.916;8.378;2023-04-01T03:40:43;9.00;99.90
35381;DHT22;21486;51.916;8.378;2023-04-01T03:43:09;9.00;99.90
35381;DHT22;21486;51.916;8.378;2023-04-01T03:45:35;9.00;99.90
35381;DHT22;21486;51.916;8.378;2023-04-01T03:48:01;9.00;99.90
35381;DHT22;21486;51.916;8.378;2023-04-01T03:50:26;8.90;99.90
35381;DHT22;21486;51.916;8.378;2023-04-01T03:52:52;9.00;99.90
35381;DHT22;21486;51.916;8.378;2023-04-01T03:55:18;8.90;99.90
35381;DHT22;21486;51.916;8.378;2023-04-01T03:57:44;8.90;99.90
35381;DHT22;21486;51.916;8.378;2023-04-01T04:00:10;8.90;99.90
35381;DHT22;21486;51.916;8.378;2023-04-01T04:02:35;8.90;99.90
35381;DHT22;21486;51.916;8.378;2023-04-01T04:05:01;8.90;99.90
35381;DHT22;21486;51.916;8.378;2023-04-01T04:07:27;9.00;99.90
35381;DHT22;21486;51.916;8.378;2023-04-01T04:09:52;9.00;99.90
35381;DHT22;21486;51.916;8.378;2023-04-01T04:12:18;9.00;99.90
35381;DHT22;21486;51.916;8.378;2023-04-01T04:14:43;8.90;99.90
35381;DHT22;21486;51.916;8.378;2023-04-01T04:17:12;8.90;99.90
35381;DHT22;21486;51.916;8.378;2023-04-01T04:19:42;8.90;99.90
35381;DHT22;21486;51.916;8.378;2023-04-01T04:22:07;8.90;99.90
35381;DHT22;21486;51.916;8.378;2023-04-01T04:24:34;8.90;99.90
35381;DHT22;21486;51.916;8.378;2023-04-01T04:27:00;8.90;99.90
35381;DHT22;21486;51.916;8.378;2023-04-01T04:29:26;8.80;99.90
35381;DHT22;21486;51.916;8.378;2023-04-01T04:31:51;8.90;99.90
35381;DHT22;21486;51.916;8.378;2023-04-01T04:34:17;8.70;99.90
35381;DHT22;21486;51.916;8.378;2023-04-01T04:36:44;8.80;99.90
35381;DHT22;21486;51.916;8.378;2023-04-01T04:39:09;8.80;99.90
35381;DHT22;21486;51.916;8.378;2023-04-01T04:41:37;8.70;99.90
35381;DHT22;21486;51.916;8.378;2023-04-01T04:44:03;8.70;99.90
35381;DHT22;21486;51.916;8.378;2023-04-01T04:46:28;8.70;99.90
35381;DHT22;21486;51.916;8.378;2023-04-01T04:48:54;8.70;99.90
35381;DHT22;21486;51.916;8.378;2023-04-01T04:51:20;8.70;99.90
35381;DHT22;21486;51.916;8.378;2023-04-01T04:53:47;8.70;99.90
35381;DHT22;21486;51.916;8.378;2023-04-01T04:56:16;8.70;99.90
35381;DHT22;21486;51.916;8.378;2023-04-01T04:58:42;8.70;99.90
35381;DHT22;21486;51.916;8.378;2023-04-01T05:01:10;8.60;99.90
35381;DHT22;21486;51.916;8.378;2023-04-01T05:03:37;8.60;99.90
35381;DHT22;21486;51.916;8.378;2023-04-01T05:06:03;8.60;99.90
35381;DHT22;21486;51.916;8.378;2023-04-01T05:08:29;8.60;99.90
35381;DHT22;21486;51.916;8.378;2023-04-01T05:10:54;8.60;99.90
35381;DHT22;21486;51.916;8.378;2023-04-01T05:13:20;8.60;99.90
35381;DHT22;21486;51.916;8.378;2023-04-01T05:15:46;8.60;99.90
35381;DHT22;21486;51.916;8.378;2023-04-01T05:18:11;8.60;99.90
35381;DHT22;21486;51.916;8.378;2023-04-01T05:20:37;8.60;99.90
35381;DHT22;21486;51.916;8.378;2023-04-01T05:23:02;8.70;99.90
35381;DHT22;21486;51.916;8.378;2023-04-01T05:25:28;8.70;99.90
35381;DHT22;21486;51.916;8.378;2023-04-01T05:27:54;8.70;99.90
35381;DHT22;21486;51.916;8.378;2023-04-01T05:30:20;8.60;99.90
35381;DHT22;21486;51.916;8.378;2023-04-01T05:32:45;8.60;99.90
35381;DHT22;21486;51.916;8.378;2023-04-01T05:35:11;8.70;99.90
35381;DHT22;21486;51.916;8.378;2023-04-01T05:37:37;8.60;99.90
35381;DHT22;21486;51.916;8.378;2023-04-01T05:40:03;8.60;99.90
35381;DHT22;21486;51.916;8.378;2023-04-01T05:42:29;8.60;99.90
35381;DHT22;21486;51.916;8.378;2023-04-01T05:44:54;8.60;99.90
35381;DHT22;21486;51.916;8.378;2023-04-01T05:47:21;8.60;99.90
35381;DHT22;21486;51.916;8.378;2023-04-01T05:49:47;8.70;99.90
35381;DHT22;21486;51.916;8.378;2023-04-01T05:52:12;8.60;99.90
35381;DHT22;21486;51.916;8.378;2023-04-01T05:54:38;8.70;99.90
35381;DHT22;21486;51.916;8.378;2023-04-01T05:57:03;8.70;99.90
35381;DHT22;21486;51.916;8.378;2023-04-01T05:59:29;8.70;99.90
35381;DHT22;21486;51.916;8.378;2023-04-01T06:01:56;8.70;99.90
35381;DHT22;21486;51.916;8.378;2023-04-01T06:04:22;8.80;99.90
35381;DHT22;21486;51.916;8.378;2023-04-01T06:06:48;8.80;99.90
35381;DHT22;21486;51.916;8.378;2023-04-01T06:09:16;8.90;99.90
35381;DHT22;21486;51.916;8.378;2023-04-01T06:12:10;8.80;99.90
35381;DHT22;21486;51.916;8.378;2023-04-01T06:20:26;8.70;99.90
35381;DHT22;21486;51.916;8.378;2023-04-01T06:26:15;8.60;99.90
35381;DHT22;21486;51.916;8.378;2023-04-01T06:32:04;8.60;99.90
35381;DHT22;21486;51.916;8.378;2023-04-01T06:43:01;8.50;99.90
35381;DHT22;21486;51.916;8.378;2023-04-01T06:45:59;8.50;99.90
35381;DHT22;21486;51.916;8.378;2023-04-01T06:54:17;8.50;99.90
35381;DHT22;21486;51.916;8.378;2023-04-01T06:56:49;8.50;99.90
35381;DHT22;21486;51.916;8.378;2023-04-01T06:59:22;8.50;99.90
35381;DHT22;21486;51.916;8.378;2023-04-01T07:02:00;8.60;99.90
35381;DHT22;21486;51.916;8.378;2023-04-01T07:04:31;8.60;99.90
35381;DHT22;21486;51.916;8.378;2023-04-01T07:07:11;8.60;99.90
35381;DHT22;21486;51.916;8.378;2023-04-01T07:09:43;8.60;99.90
35381;DHT22;21486;51.916;8.378;2023-04-01T07:15:17;8.70;99.90
35381;DHT22;21486;51.916;8.378;2023-04-01T07:17:45;8.80;99.90
35381;DHT22;21486;51.916;8.378;2023-04-01T07:20:32;8.80;99.90
35381;DHT22;21486;51.916;8.378;2023-04-01T07:23:08;9.00;99.90
35381;DHT22;21486;51.916;8.378;2023-04-01T07:25:39;8.90;99.90
35381;DHT22;21486;51.916;8.378;2023-04-01T07:28:13;9.00;99.90
35381;DHT22;21486;51.916;8.378;2023-04-01T07:31:07;9.10;99.90
35381;DHT22;21486;51.916;8.378;2023-04-01T07:33:59;9.10;99.90
35381;DHT22;21486;51.916;8.378;2023-04-01T07:36:42;9.10;99.90
35381;DHT22;21486;51.916;8.378;2023-04-01T07:39:27;9.10;99.90
35381;DHT22;21486;51.916;8.378;2023-04-01T07:42:10;9.20;99.90
35381;DHT22;21486;51.916;8.378;2023-04-01T07:50:34;9.30;99.90
35381;DHT22;21486;51.916;8.378;2023-04-01T07:55:51;9.30;99.90
35381;DHT22;21486;51.916;8.378;2023-04-01T08:06:40;9.60;99.90
35381;DHT22;21486;51.916;8.378;2023-04-01T08:14:32;9.60;99.90
35381;DHT22;21486;51.916;8.378;2023-04-01T08:17:15;9.60;99.90
35381;DHT22;21486;51.916;8.378;2023-04-01T08:20:13;9.70;99.90
35381;DHT22;21486;51.916;8.378;2023-04-01T08:22:42;9.80;99.90
35381;DHT22;21486;51.916;8.378;2023-04-01T08:25:16;9.70;99.90
35381;DHT22;21486;51.916;8.378;2023-04-01T08:27:51;9.70;99.90
35381;DHT22;21486;51.916;8.378;2023-04-01T08:30:23;9.70;99.90
35381;DHT22;21486;51.916;8.378;2023-04-01T08:32:56;9.80;99.90
35381;DHT22;21486;51.916;8.378;2023-04-01T08:38:21;10.10;99.90
35381;DHT22;21486;51.916;8.378;2023-04-01T08:40:58;10.30;99.90
35381;DHT22;21486;51.916;8.378;2023-04-01T08:43:43;10.10;99.90
35381;DHT22;21486;51.916;8.378;2023-04-01T08:46:37;10.20;99.90
35381;DHT22;21486;51.916;8.378;2023-04-01T08:54:46;10.50;99.90
35381;DHT22;21486;51.916;8.378;2023-04-01T08:57:25;10.50;99.90
35381;DHT22;21486;51.916;8.378;2023-04-01T09:03:02;10.50;99.90
35381;DHT22;21486;51.916;8.378;2023-04-01T09:05:40;10.50;99.90
35381;DHT22;21486;51.916;8.378;2023-04-01T09:11:11;10.30;99.90
35381;DHT22;21486;51.916;8.378;2023-04-01T09:16:39;10.20;99.90
35381;DHT22;21486;51.916;8.378;2023-04-01T09:19:25;10.30;99.90
35381;DHT22;21486;51.916;8.378;2023-04-01T09:21:58;10.20;99.90
35381;DHT22;21486;51.916;8.378;2023-04-01T09:24:40;10.40;99.90
35381;DHT22;21486;51.916;8.378;2023-04-01T09:38:40;11.40;99.90
35381;DHT22;21486;51.916;8.378;2023-04-01T09:44:29;11.10;99.90
35381;DHT22;21486;51.916;8.378;2023-04-01T09:52:41;11.00;99.90
35381;DHT22;21486;51.916;8.378;2023-04-01T09:58:16;11.00;99.90
35381;DHT22;21486;51.916;8.378;2023-04-01T10:01:11;11.00;99.90
35381;DHT22;21486;51.916;8.378;2023-04-01T10:09:20;11.40;99.90
35381;DHT22;21486;51.916;8.378;2023-04-01T10:17:30;11.40;99.90
35381;DHT22;21486;51.916;8.378;2023-04-01T10:36:56;11.10;99.90
35381;DHT22;21486;51.916;8.378;2023-04-01T10:59:58;10.90;99.90
35381;DHT22;21486;51.916;8.378;2023-04-01T11:05:42;11.00;99.90
35381;DHT22;21486;51.916;8.378;2023-04-01T11:08:20;11.00;99.90
35381;DHT22;21486;51.916;8.378;2023-04-01T11:14:24;10.90;99.90
35381;DHT22;21486;51.916;8.378;2023-04-01T11:22:48;10.80;99.90
35381;DHT22;21486;51.916;8.378;2023-04-01T11:25:19;10.90;99.90
35381;DHT22;21486;51.916;8.378;2023-04-01T11:33:26;11.10;99.90
35381;DHT22;21486;51.916;8.378;2023-04-01T11:36:03;10.90;99.90
35381;DHT22;21486;51.916;8.378;2023-04-01T11:38:51;10.90;99.90
35381;DHT22;21486;51.916;8.378;2023-04-01T11:41:49;10.90;99.90
35381;DHT22;21486;51.916;8.378;2023-04-01T11:44:23;10.60;99.90
35381;DHT22;21486;51.916;8.378;2023-04-01T11:49:46;10.60;99.90
35381;DHT22;21486;51.916;8.378;2023-04-01T11:55:06;10.80;99.90
35381;DHT22;21486;51.916;8.378;2023-04-01T12:00:16;10.80;99.90
35381;DHT22;21486;51.916;8.378;2023-04-01T12:03:04;10.90;99.90
35381;DHT22;21486;51.916;8.378;2023-04-01T12:05:48;10.90;99.90
35381;DHT22;21486;51.916;8.378;2023-04-01T12:11:35;10.80;99.90
35381;DHT22;21486;51.916;8.378;2023-04-01T12:22:26;10.80;99.90
35381;DHT22;21486;51.916;8.378;2023-04-01T12:31:02;10.90;99.90
35381;DHT22;21486;51.916;8.378;2023-04-01T12:36:18;11.10;99.90
35381;DHT22;21486;51.916;8.378;2023-04-01T12:41:44;11.00;99.90
35381;DHT22;21486;51.916;8.378;2023-04-01T12:44:23;11.00;99.90
35381;DHT22;21486;51.916;8.378;2023-04-01T12:47:07;11.00;99.90
35381;DHT22;21486;51.916;8.378;2023-04-01T12:56:06;11.10;99.90
35381;DHT22;21486;51.916;8.378;2023-04-01T13:03:27;10.80;99.90
35381;DHT22;21486;51.916;8.378;2023-04-01T13:06:12;10.80;99.90
35381;DHT22;21486;51.916;8.378;2023-04-01T13:28:37;11.20;99.90
35381;DHT22;21486;51.916;8.378;2023-04-01T13:36:51;11.30;99.90
35381;DHT22;21486;51.916;8.378;2023-04-01T13:45:01;11.50;99.90
35381;DHT22;21486;51.916;8.378;2023-04-01T13:53:19;11.60;99.90
35381;DHT22;21486;51.916;8.378;2023-04-01T13:56:19;11.70;99.90
35381;DHT22;21486;51.916;8.378;2023-04-01T14:04:53;11.80;99.90
35381;DHT22;21486;51.916;8.378;2023-04-01T14:13:15;11.70;99.90
35381;DHT22;21486;51.916;8.378;2023-04-01T14:21:19;11.70;99.90
35381;DHT22;21486;51.916;8.378;2023-04-01T14:32:51;11.70;99.90
35381;DHT22;21486;51.916;8.378;2023-04-01T14:35:46;11.60;99.90
35381;DHT22;21486;51.916;8.378;2023-04-01T14:41:18;11.60;99.90
35381;DHT22;21486;51.916;8.378;2023-04-01T14:43:49;11.70;99.90
35381;DHT22;21486;51.916;8.378;2023-04-01T14:52:09;11.60;99.90
35381;DHT22;21486;51.916;8.378;2023-04-01T14:54:38;11.70;99.90
35381;DHT22;21486;51.916;8.378;2023-04-01T14:57:15;11.60;99.90
35381;DHT22;21486;51.916;8.378;2023-04-01T14:59:49;11.70;99.90
35381;DHT22;21486;51.916;8.378;2023-04-01T15:02:42;11.70;99.90
35381;DHT22;21486;51.916;8.378;2023-04-01T15:05:29;11.60;99.90
35381;DHT22;21486;51.916;8.378;2023-04-01T15:08:01;11.70;99.90
35381;DHT22;21486;51.916;8.378;2023-04-01T15:10:35;11.70;99.90
35381;DHT22;21486;51.916;8.378;2023-04-01T15:16:31;11.40;99.90
35381;DHT22;21486;51.916;8.378;2023-04-01T15:22:03;11.50;99.90
35381;DHT22;21486;51.916;8.378;2023-04-01T15:24:47;11.40;99.90
35381;DHT22;21486;51.916;8.378;2023-04-01T15:35:23;11.30;99.90
35381;DHT22;21486;51.916;8.378;2023-04-01T15:37:57;11.30;99.90
35381;DHT22;21486;51.916;8.378;2023-04-01T15:40:53;11.30;99.90
35381;DHT22;21486;51.916;8.378;2023-04-01T15:46:24;11.20;99.90
35381;DHT22;21486;51.916;8.378;2023-04-01T15:49:01;11.20;99.90
35381;DHT22;21486;51.916;8.378;2023-04-01T15:52:02;11.20;99.90
35381;DHT22;21486;51.916;8.378;2023-04-01T15:57:54;11.30;99.90
35381;DHT22;21486;51.916;8.378;2023-04-01T16:00:31;11.40;99.90
35381;DHT22;21486;51.916;8.378;2023-04-01T16:06:08;11.40;99.90
35381;DHT22;21486;51.916;8.378;2023-04-01T16:16:53;11.20;99.90
35381;DHT22;21486;51.916;8.378;2023-04-01T16:22:23;11.10;99.90
35381;DHT22;21486;51.916;8.378;2023-04-01T16:30:38;10.60;99.90
35381;DHT22;21486;51.916;8.378;2023-04-01T16:36:24;10.70;99.90
35381;DHT22;21486;51.916;8.378;2023-04-01T16:39:11;10.70;99.90
35381;DHT22;21486;51.916;8.378;2023-04-01T16:44:31;10.60;99.90
35381;DHT22;21486;51.916;8.378;2023-04-01T16:47:12;10.60;99.90
35381;DHT22;21486;51.916;8.378;2023-04-01T16:49:51;10.60;99.90
35381;DHT22;21486;51.916;8.378;2023-04-01T16:55:54;10.50;99.90
35381;DHT22;21486;51.916;8.378;2023-04-01T16:58:42;10.40;99.90
35381;DHT22;21486;51.916;8.378;2023-04-01T17:01:16;10.40;99.90
35381;DHT22;21486;51.916;8.378;2023-04-01T17:03:46;10.30;99.90
35381;DHT22;21486;51.916;8.378;2023-04-01T17:07:05;10.40;99.90
35381;DHT22;21486;51.916;8.378;2023-04-01T17:09:39;10.40;99.90
35381;DHT22;21486;51.916;8.378;2023-04-01T17:12:24;10.30;99.90
35381;DHT22;21486;51.916;8.378;2023-04-01T17:15:07;10.30;99.90
35381;DHT22;21486;51.916;8.378;2023-04-01T17:20:27;10.40;99.90
35381;DHT22;21486;51.916;8.378;2023-04-01T17:23:22;10.30;99.90
35381;DHT22;21486;51.916;8.378;2023-04-01T17:26:00;10.30;99.90
35381;DHT22;21486;51.916;8.378;2023-04-01T17:28:47;10.30;99.90
35381;DHT22;21486;51.916;8.378;2023-04-01T17:31:51;10.30;99.90
35381;DHT22;21486;51.916;8.378;2023-04-01T17:37:22;10.40;99.90
35381;DHT22;21486;51.916;8.378;2023-04-01T17:43:00;10.40;99.90
35381;DHT22;21486;51.916;8.378;2023-04-01T17:45:35;10.20;99.90
35381;DHT22;21486;51.916;8.378;2023-04-01T17:48:24;10.30;99.90
35381;DHT22;21486;51.916;8.378;2023-04-01T17:53:53;10.20;99.90
35381;DHT22;21486;51.916;8.378;2023-04-01T18:01:57;10.10;99.90
35381;DHT22;21486;51.916;8.378;2023-04-01T18:04:40;10.10;99.90
35381;DHT22;21486;51.916;8.378;2023-04-01T18:16:08;10.00;99.90
35381;DHT22;21486;51.916;8.378;2023-04-01T18:24:30;10.10;99.90
35381;DHT22;21486;51.916;8.378;2023-04-01T18:27:04;10.00;99.90
35381;DHT22;21486;51.916;8.378;2023-04-01T18:29:51;9.90;99.90
35381;DHT22;21486;51.916;8.378;2023-04-01T18:32:35;9.80;99.90
35381;DHT22;21486;51.916;8.378;2023-04-01T18:38:31;9.60;99.90
35381;DHT22;21486;51.916;8.378;2023-04-01T18:41:15;9.50;99.90
35381;DHT22;21486;51.916;8.378;2023-04-01T18:51:55;9.30;99.90
35381;DHT22;21486;51.916;8.378;2023-04-01T18:55:28;9.20;99.90
35381;DHT22;21486;51.916;8.378;2023-04-01T18:57:51;9.10;99.90
35381;DHT22;21486;51.916;8.378;2023-04-01T19:00:26;9.20;99.90
35381;DHT22;21486;51.916;8.378;2023-04-01T19:03:23;9.20;99.90
35381;DHT22;21486;51.916;8.378;2023-04-01T19:05:52;9.20;99.90
35381;DHT22;21486;51.916;8.378;2023-04-01T19:08:35;9.10;99.90
35381;DHT22;21486;51.916;8.378;2023-04-01T19:21:57;9.00;99.90
35381;DHT22;21486;51.916;8.378;2023-04-01T19:27:34;8.90;99.90
35381;DHT22;21486;51.916;8.378;2023-04-01T19:30:19;8.80;99.90
35381;DHT22;21486;51.916;8.378;2023-04-01T19:33:15;8.80;99.90
35381;DHT22;21486;51.916;8.378;2023-04-01T19:38:39;8.70;99.90
35381;DHT22;21486;51.916;8.378;2023-04-01T19:41:39;8.50;99.90
35381;DHT22;21486;51.916;8.378;2023-04-01T19:52:40;8.40;99.90
35381;DHT22;21486;51.916;8.378;2023-04-01T19:56:14;8.30;99.90
35381;DHT22;21486;51.916;8.378;2023-04-01T19:58:30;8.30;99.90
35381;DHT22;21486;51.916;8.378;2023-04-01T20:00:58;8.30;99.90
35381;DHT22;21486;51.916;8.378;2023-04-01T20:04:02;8.40;99.90
35381;DHT22;21486;51.916;8.378;2023-04-01T20:06:36;8.30;99.90
35381;DHT22;21486;51.916;8.378;2023-04-01T20:09:44;8.20;99.90
35381;DHT22;21486;51.916;8.378;2023-04-01T20:15:04;8.10;99.90
35381;DHT22;21486;51.916;8.378;2023-04-01T20:17:42;8.10;99.90
35381;DHT22;21486;51.916;8.378;2023-04-01T20:25:32;8.10;99.90
35381;DHT22;21486;51.916;8.378;2023-04-01T20:28:09;8.00;99.90
35381;DHT22;21486;51.916;8.378;2023-04-01T20:33:53;8.00;99.90
35381;DHT22;21486;51.916;8.378;2023-04-01T20:36:46;8.00;99.90
35381;DHT22;21486;51.916;8.378;2023-04-01T20:44:59;7.70;99.90
35381;DHT22;21486;51.916;8.378;2023-04-01T20:47:53;7.70;99.90
35381;DHT22;21486;51.916;8.378;2023-04-01T20:53:22;7.70;99.90
35381;DHT22;21486;51.916;8.378;2023-04-01T21:06:45;7.40;99.90
35381;DHT22;21486;51.916;8.378;2023-04-01T21:09:41;7.30;99.90
35381;DHT22;21486;51.916;8.378;2023-04-01T21:12:30;7.30;99.90
35381;DHT22;21486;51.916;8.378;2023-04-01T21:15:21;7.40;99.90
35381;DHT22;21486;51.916;8.378;2023-04-01T21:32:04;7.30;99.90
35381;DHT22;21486;51.916;8.378;2023-04-01T21:34:48;7.30;99.90
35381;DHT22;21486;51.916;8.378;2023-04-01T21:40:17;7.30;99.90
35381;DHT22;21486;51.916;8.378;2023-04-01T21:51:35;7.30;99.90
35381;DHT22;21486;51.916;8.378;2023-04-01T22:00:07;7.10;99.90
35381;DHT22;21486;51.916;8.378;2023-04-01T22:10:50;7.00;99.90
35381;DHT22;21486;51.916;8.378;2023-04-01T22:13:32;7.00;99.90
35381;DHT22;21486;51.916;8.378;2023-04-01T22:19:02;7.20;99.90
35381;DHT22;21486;51.916;8.378;2023-04-01T22:21:44;7.00;99.90
35381;DHT22;21486;51.916;8.378;2023-04-01T22:27:26;6.70;99.90
35381;DHT22;21486;51.916;8.378;2023-04-01T22:30:14;6.60;99.90
35381;DHT22;21486;51.916;8.378;2023-04-01T22:32:49;6.70;99.90
35381;DHT22;21486;51.916;8.378;2023-04-01T22:38:15;6.60;99.90
35381;DHT22;21486;51.916;8.378;2023-04-01T22:41:21;6.50;99.90
35381;DHT22;21486;51.916;8.378;2023-04-01T22:43:51;6.50;99.90
35381;DHT22;21486;51.916;8.378;2023-04-01T22:49:27;6.40;99.90
35381;DHT22;21486;51.916;8.378;2023-04-01T22:55:28;6.30;99.90
35381;DHT22;21486;51.916;8.378;2023-04-01T22:58:02;6.30;99.90
35381;DHT22;21486;51.916;8.378;2023-04-01T23:00:40;6.30;99.90
35381;DHT22;21486;51.916;8.378;2023-04-01T23:03:36;6.30;99.90
35381;DHT22;21486;51.916;8.378;2023-04-01T23:06:06;6.30;99.90
35381;DHT22;21486;51.916;8.378;2023-04-01T23:16:51;6.10;99.90
35381;DHT22;21486;51.916;8.378;2023-04-01T23:25:28;6.10;99.90
35381;DHT22;21486;51.916;8.378;2023-04-01T23:30:51;6.20;99.90
35381;DHT22;21486;51.916;8.378;2023-04-01T23:36:01;5.90;99.90
35381;DHT22;21486;51.916;8.378;2023-04-01T23:38:37;5.80;99.90
35381;DHT22;21486;51.916;8.378;2023-04-01T23:41:04;5.80;99.90
35381;DHT22;21486;51.916;8.378;2023-04-01T23:43:37;5.70;99.90
35381;DHT22;21486;51.916;8.378;2023-04-01T23:46:05;6.00;99.90
35381;DHT22;21486;51.916;8.378;2023-04-01T23:48:43;5.80;99.90
35381;DHT22;21486;51.916;8.378;2023-04-01T23:51:24;5.80;99.90
35381;DHT22;21486;51.916;8.378;2023-04-01T23:54:15;5.90;99.90
35381;DHT22;21486;51.916;8.378;2023-04-01T23:56:45;5.70;99.90
35381;DHT22;21486;51.916;8.378;2023-04-01T23:59:22;5.80;99.90
